Aeroporto :
LOGIN :

Iscrizione | Disclaimer

   EN    FR    IT 

 










Sommario :    VFR   VFR Marginale   IFR   IFR Intensivo   IFR Molto Intensivo
Visibilità : 
Base nubi : 
>= 8 km
>= 3000ft
5 / 8 km
1000 / 3000 ft
1500m / 5 km
500 / 1000 ft
800 / 1500m
200 / 500 ft
< 800m
< 200 ft
Simboli :   Temporali  Nebbia  Neve Forte  Precipitazioni Forti  Vento > 20 kt
SIGMETs :   Varie  Temporali  Ghiacco  Turbolenza  Onda orograficha  Ceneri Vulcaniche







- Altitudine del aeroporto : 17 ft
- Codice IATA : GRS


LIRS - Grosseto

ULTIMO METAR :
  • 210155Z 05004KT CAVOK 02/01 Q1026 RMK SKC VIS MIN 9999 WIND THR03 05005KT WIND THR21 07002KT BLU

METARs OBSOLETI :
  • 210055Z 02004KT CAVOK 02/01 Q1026 RMK SKC VIS MIN 9999 WIND THR03 03005KT WIND THR21 03003KT BLU
  • 202355Z 36004KT CAVOK 02/01 Q1026 RMK SKC VIS MIN 9999 WIND THR03 01003KT WIND THR21 01003KT BLU

TAF TAF LIRS
Valido dal 21 a 00 ore il 21 a 09 ore UTC


202300Z 2100/2109 04005KT 9999 SCT030
TEMPO 2100/2106 5000 BR
Nessun NOTAM noto per questo aeroporto.
1 SIGMET conosciuto per la FIR Roma (LIRR) :
 
Ceneri vulcaniche
LIRR SIGMET 6 VALID 202351/210630 LIIB
LIRR ROMA FIR VA ERUPTION MT ETNA PSN N3744 E01500 VA CLD OBS AT 0000Z WI N3645 E01510 - N3649 E01445 - N3755 E01510 - N3745 E01525 - N3645 E01510 SFC/FL120 NC=



MetMap, La meteo Aeronautica in un colpo d'occhio ! - Copyright ORBIFLY Dicembre 2007 - Disclaimer

ORBIFLY MET'MAP TEAM :

Programmazione e sviluppo : Alexandra Zaïnal
Concezione e sviluppo : Baudouin d'Aumeries
Co-Programmazione e sviluppo : Marc-Olivier Méhu
Supporto tecnico e logistico : Manuel Goepfert
Aiuto per la traduzione : Arnaldo La Scala

Contatto : metmap@orbifly.com




FONTI E CREDITI :

   NOAA